sensor_id;sensor_type;location;lat;lon;timestamp;temperature;humidity
23544;DHT22;11950;51.230;4.012;2022-12-11T00:00:38;4.60;99.90
23544;DHT22;11950;51.230;4.012;2022-12-11T00:03:04;4.60;99.90
23544;DHT22;11950;51.230;4.012;2022-12-11T00:05:31;4.60;99.90
23544;DHT22;11950;51.230;4.012;2022-12-11T00:07:58;4.60;99.90
23544;DHT22;11950;51.230;4.012;2022-12-11T00:10:24;4.50;99.90
23544;DHT22;11950;51.230;4.012;2022-12-11T00:12:51;4.60;99.90
23544;DHT22;11950;51.230;4.012;2022-12-11T00:15:17;4.60;99.90
23544;DHT22;11950;51.230;4.012;2022-12-11T00:17:43;4.60;99.90
23544;DHT22;11950;51.230;4.012;2022-12-11T00:20:10;4.60;99.90
23544;DHT22;11950;51.230;4.012;2022-12-11T00:22:36;4.60;99.90
23544;DHT22;11950;51.230;4.012;2022-12-11T00:25:03;4.60;99.90
23544;DHT22;11950;51.230;4.012;2022-12-11T00:27:29;4.60;99.90
23544;DHT22;11950;51.230;4.012;2022-12-11T00:29:56;4.60;99.90
23544;DHT22;11950;51.230;4.012;2022-12-11T00:32:22;4.60;99.90
23544;DHT22;11950;51.230;4.012;2022-12-11T00:34:48;4.60;99.90
23544;DHT22;11950;51.230;4.012;2022-12-11T00:37:14;4.60;99.90
23544;DHT22;11950;51.230;4.012;2022-12-11T00:39:41;4.60;99.90
23544;DHT22;11950;51.230;4.012;2022-12-11T00:42:07;4.60;99.90
23544;DHT22;11950;51.230;4.012;2022-12-11T00:44:34;4.60;99.90
23544;DHT22;11950;51.230;4.012;2022-12-11T00:47:00;4.60;99.90
23544;DHT22;11950;51.230;4.012;2022-12-11T00:49:27;4.60;99.90
23544;DHT22;11950;51.230;4.012;2022-12-11T00:51:53;4.50;99.90
23544;DHT22;11950;51.230;4.012;2022-12-11T00:54:19;4.60;99.90
23544;DHT22;11950;51.230;4.012;2022-12-11T00:56:46;4.60;99.90
23544;DHT22;11950;51.230;4.012;2022-12-11T00:59:12;4.60;99.90
23544;DHT22;11950;51.230;4.012;2022-12-11T01:01:38;4.50;99.90
23544;DHT22;11950;51.230;4.012;2022-12-11T01:04:05;4.50;99.90
23544;DHT22;11950;51.230;4.012;2022-12-11T01:06:31;4.50;99.90
23544;DHT22;11950;51.230;4.012;2022-12-11T01:08:57;4.50;99.90
23544;DHT22;11950;51.230;4.012;2022-12-11T01:11:42;4.50;99.90
23544;DHT22;11950;51.230;4.012;2022-12-11T01:14:10;4.50;99.90
23544;DHT22;11950;51.230;4.012;2022-12-11T01:16:37;4.50;99.90
23544;DHT22;11950;51.230;4.012;2022-12-11T01:19:03;4.50;99.90
23544;DHT22;11950;51.230;4.012;2022-12-11T01:21:29;4.50;99.90
23544;DHT22;11950;51.230;4.012;2022-12-11T01:23:56;4.50;99.90
23544;DHT22;11950;51.230;4.012;2022-12-11T01:26:22;4.50;99.90
23544;DHT22;11950;51.230;4.012;2022-12-11T01:28:50;4.50;99.90
23544;DHT22;11950;51.230;4.012;2022-12-11T01:31:17;4.50;99.90
23544;DHT22;11950;51.230;4.012;2022-12-11T01:33:44;4.50;99.90
23544;DHT22;11950;51.230;4.012;2022-12-11T01:36:13;4.50;99.90
23544;DHT22;11950;51.230;4.012;2022-12-11T01:38:39;4.50;99.90
23544;DHT22;11950;51.230;4.012;2022-12-11T01:41:07;4.50;99.90
23544;DHT22;11950;51.230;4.012;2022-12-11T01:43:34;4.50;99.90
23544;DHT22;11950;51.230;4.012;2022-12-11T01:46:01;4.50;99.90
23544;DHT22;11950;51.230;4.012;2022-12-11T01:48:31;4.50;99.90
23544;DHT22;11950;51.230;4.012;2022-12-11T01:51:02;4.50;99.90
23544;DHT22;11950;51.230;4.012;2022-12-11T01:53:36;4.50;99.90
23544;DHT22;11950;51.230;4.012;2022-12-11T01:56:03;4.50;99.90
23544;DHT22;11950;51.230;4.012;2022-12-11T01:58:33;4.50;99.90
23544;DHT22;11950;51.230;4.012;2022-12-11T02:01:01;4.50;99.90
23544;DHT22;11950;51.230;4.012;2022-12-11T02:03:28;4.50;99.90
23544;DHT22;11950;51.230;4.012;2022-12-11T02:05:57;4.50;99.90
23544;DHT22;11950;51.230;4.012;2022-12-11T02:08:24;4.50;99.90
23544;DHT22;11950;51.230;4.012;2022-12-11T02:11:07;4.50;99.90
23544;DHT22;11950;51.230;4.012;2022-12-11T02:13:47;4.50;99.90
23544;DHT22;11950;51.230;4.012;2022-12-11T02:16:23;4.40;99.90
23544;DHT22;11950;51.230;4.012;2022-12-11T02:19:14;4.40;99.90
23544;DHT22;11950;51.230;4.012;2022-12-11T02:21:48;4.40;99.90
23544;DHT22;11950;51.230;4.012;2022-12-11T02:30:10;4.50;99.90
23544;DHT22;11950;51.230;4.012;2022-12-11T02:32:46;4.50;99.90
23544;DHT22;11950;51.230;4.012;2022-12-11T02:35:25;4.40;99.90
23544;DHT22;11950;51.230;4.012;2022-12-11T02:37:58;4.40;99.90
23544;DHT22;11950;51.230;4.012;2022-12-11T02:40:29;4.40;99.90
23544;DHT22;11950;51.230;4.012;2022-12-11T02:43:01;4.40;99.90
23544;DHT22;11950;51.230;4.012;2022-12-11T02:45:28;4.40;99.90
23544;DHT22;11950;51.230;4.012;2022-12-11T02:47:57;4.40;99.90
23544;DHT22;11950;51.230;4.012;2022-12-11T02:50:24;4.50;99.90
23544;DHT22;11950;51.230;4.012;2022-12-11T02:52:52;4.50;99.90
23544;DHT22;11950;51.230;4.012;2022-12-11T02:55:21;4.40;99.90
23544;DHT22;11950;51.230;4.012;2022-12-11T02:57:51;4.40;99.90
23544;DHT22;11950;51.230;4.012;2022-12-11T03:00:19;4.50;99.90
23544;DHT22;11950;51.230;4.012;2022-12-11T03:02:45;4.50;99.90
23544;DHT22;11950;51.230;4.012;2022-12-11T03:05:13;4.50;99.90
23544;DHT22;11950;51.230;4.012;2022-12-11T03:07:42;4.50;99.90
23544;DHT22;11950;51.230;4.012;2022-12-11T03:10:11;4.50;99.90
23544;DHT22;11950;51.230;4.012;2022-12-11T03:12:42;4.50;99.90
23544;DHT22;11950;51.230;4.012;2022-12-11T03:15:13;4.50;99.90
23544;DHT22;11950;51.230;4.012;2022-12-11T03:26:08;4.50;99.90
23544;DHT22;11950;51.230;4.012;2022-12-11T03:28:54;4.50;99.90
23544;DHT22;11950;51.230;4.012;2022-12-11T03:31:31;4.40;99.90
23544;DHT22;11950;51.230;4.012;2022-12-11T03:34:02;4.40;99.90
23544;DHT22;11950;51.230;4.012;2022-12-11T03:36:35;4.40;99.90
23544;DHT22;11950;51.230;4.012;2022-12-11T03:39:20;4.40;99.90
23544;DHT22;11950;51.230;4.012;2022-12-11T03:41:48;4.40;99.90
23544;DHT22;11950;51.230;4.012;2022-12-11T03:44:15;4.40;99.90
23544;DHT22;11950;51.230;4.012;2022-12-11T03:46:44;4.40;99.90
23544;DHT22;11950;51.230;4.012;2022-12-11T03:49:20;4.40;99.90
23544;DHT22;11950;51.230;4.012;2022-12-11T03:51:49;4.40;99.90
23544;DHT22;11950;51.230;4.012;2022-12-11T03:54:16;4.40;99.90
23544;DHT22;11950;51.230;4.012;2022-12-11T03:56:44;4.40;99.90
23544;DHT22;11950;51.230;4.012;2022-12-11T03:59:11;4.40;99.90
23544;DHT22;11950;51.230;4.012;2022-12-11T04:01:38;4.40;99.90
23544;DHT22;11950;51.230;4.012;2022-12-11T04:04:04;4.40;99.90
23544;DHT22;11950;51.230;4.012;2022-12-11T04:06:31;4.40;99.90
23544;DHT22;11950;51.230;4.012;2022-12-11T04:08:57;4.40;99.90
23544;DHT22;11950;51.230;4.012;2022-12-11T04:11:23;4.40;99.90
23544;DHT22;11950;51.230;4.012;2022-12-11T04:14:07;4.40;99.90
23544;DHT22;11950;51.230;4.012;2022-12-11T04:16:52;4.40;99.90
23544;DHT22;11950;51.230;4.012;2022-12-11T04:19:18;4.40;99.90
23544;DHT22;11950;51.230;4.012;2022-12-11T04:22:04;4.40;99.90
23544;DHT22;11950;51.230;4.012;2022-12-11T04:24:49;4.40;99.90
23544;DHT22;11950;51.230;4.012;2022-12-11T04:27:16;4.40;99.90
23544;DHT22;11950;51.230;4.012;2022-12-11T04:30:05;4.40;99.90
23544;DHT22;11950;51.230;4.012;2022-12-11T04:32:32;4.40;99.90
23544;DHT22;11950;51.230;4.012;2022-12-11T04:34:58;4.50;99.90
23544;DHT22;11950;51.230;4.012;2022-12-11T04:37:26;4.40;99.90
23544;DHT22;11950;51.230;4.012;2022-12-11T04:39:52;4.40;99.90
23544;DHT22;11950;51.230;4.012;2022-12-11T04:42:19;4.50;99.90
23544;DHT22;11950;51.230;4.012;2022-12-11T04:44:45;4.50;99.90
23544;DHT22;11950;51.230;4.012;2022-12-11T04:47:11;4.50;99.90
23544;DHT22;11950;51.230;4.012;2022-12-11T04:49:38;4.50;99.90
23544;DHT22;11950;51.230;4.012;2022-12-11T04:52:04;4.50;99.90
23544;DHT22;11950;51.230;4.012;2022-12-11T04:54:31;4.50;99.90
23544;DHT22;11950;51.230;4.012;2022-12-11T04:56:57;4.50;99.90
23544;DHT22;11950;51.230;4.012;2022-12-11T04:59:23;4.50;99.90
23544;DHT22;11950;51.230;4.012;2022-12-11T05:01:49;4.50;99.90
23544;DHT22;11950;51.230;4.012;2022-12-11T05:04:16;4.50;99.90
23544;DHT22;11950;51.230;4.012;2022-12-11T05:06:42;4.50;99.90
23544;DHT22;11950;51.230;4.012;2022-12-11T05:09:12;4.40;99.90
23544;DHT22;11950;51.230;4.012;2022-12-11T05:11:39;4.40;99.90
23544;DHT22;11950;51.230;4.012;2022-12-11T05:14:05;4.40;99.90
23544;DHT22;11950;51.230;4.012;2022-12-11T05:16:31;4.50;99.90
23544;DHT22;11950;51.230;4.012;2022-12-11T05:18:58;4.40;99.90
23544;DHT22;11950;51.230;4.012;2022-12-11T05:21:24;4.00;99.90
23544;DHT22;11950;51.230;4.012;2022-12-11T05:23:50;4.50;99.90
23544;DHT22;11950;51.230;4.012;2022-12-11T05:26:18;4.50;99.90
23544;DHT22;11950;51.230;4.012;2022-12-11T05:28:45;4.50;99.90
23544;DHT22;11950;51.230;4.012;2022-12-11T05:31:17;4.50;99.90
23544;DHT22;11950;51.230;4.012;2022-12-11T05:33:44;4.40;99.90
23544;DHT22;11950;51.230;4.012;2022-12-11T05:36:15;4.40;99.90
23544;DHT22;11950;51.230;4.012;2022-12-11T05:38:42;4.40;99.90
23544;DHT22;11950;51.230;4.012;2022-12-11T05:41:09;4.40;99.90
23544;DHT22;11950;51.230;4.012;2022-12-11T05:43:37;4.40;99.90
23544;DHT22;11950;51.230;4.012;2022-12-11T05:46:09;4.40;99.90
23544;DHT22;11950;51.230;4.012;2022-12-11T05:48:37;4.40;99.90
23544;DHT22;11950;51.230;4.012;2022-12-11T05:51:04;4.40;99.90
23544;DHT22;11950;51.230;4.012;2022-12-11T05:53:31;4.50;99.90
23544;DHT22;11950;51.230;4.012;2022-12-11T05:56:06;4.40;99.90
23544;DHT22;11950;51.230;4.012;2022-12-11T05:58:34;4.40;99.90
23544;DHT22;11950;51.230;4.012;2022-12-11T06:01:01;4.40;99.90
23544;DHT22;11950;51.230;4.012;2022-12-11T06:03:28;4.40;99.90
23544;DHT22;11950;51.230;4.012;2022-12-11T06:05:54;4.40;99.90
23544;DHT22;11950;51.230;4.012;2022-12-11T06:08:20;4.40;99.90
23544;DHT22;11950;51.230;4.012;2022-12-11T06:10:48;4.40;99.90
23544;DHT22;11950;51.230;4.012;2022-12-11T06:13:15;4.40;99.90
23544;DHT22;11950;51.230;4.012;2022-12-11T06:15:41;4.40;99.90
23544;DHT22;11950;51.230;4.012;2022-12-11T06:18:08;4.40;99.90
23544;DHT22;11950;51.230;4.012;2022-12-11T06:20:34;4.40;99.90
23544;DHT22;11950;51.230;4.012;2022-12-11T06:23:01;4.40;99.90
23544;DHT22;11950;51.230;4.012;2022-12-11T06:25:28;4.40;99.90
23544;DHT22;11950;51.230;4.012;2022-12-11T06:27:54;4.40;99.90
23544;DHT22;11950;51.230;4.012;2022-12-11T06:30:21;4.40;99.90
23544;DHT22;11950;51.230;4.012;2022-12-11T06:32:47;4.40;99.90
23544;DHT22;11950;51.230;4.012;2022-12-11T06:35:13;4.40;99.90
23544;DHT22;11950;51.230;4.012;2022-12-11T06:37:40;4.50;99.90
23544;DHT22;11950;51.230;4.012;2022-12-11T06:40:08;4.50;99.90
23544;DHT22;11950;51.230;4.012;2022-12-11T06:42:35;4.50;99.90
23544;DHT22;11950;51.230;4.012;2022-12-11T06:45:01;4.50;99.90
23544;DHT22;11950;51.230;4.012;2022-12-11T06:47:29;4.50;99.90
23544;DHT22;11950;51.230;4.012;2022-12-11T06:49:55;4.50;99.90
23544;DHT22;11950;51.230;4.012;2022-12-11T06:52:23;4.50;99.90
23544;DHT22;11950;51.230;4.012;2022-12-11T06:54:50;4.50;99.90
23544;DHT22;11950;51.230;4.012;2022-12-11T06:57:17;4.50;99.90
23544;DHT22;11950;51.230;4.012;2022-12-11T06:59:44;4.50;99.90
23544;DHT22;11950;51.230;4.012;2022-12-11T07:02:20;4.50;99.90
23544;DHT22;11950;51.230;4.012;2022-12-11T07:04:46;4.50;99.90
23544;DHT22;11950;51.230;4.012;2022-12-11T07:07:12;4.50;99.90
23544;DHT22;11950;51.230;4.012;2022-12-11T07:09:40;4.50;99.90
23544;DHT22;11950;51.230;4.012;2022-12-11T07:12:07;4.50;99.90
23544;DHT22;11950;51.230;4.012;2022-12-11T07:14:33;4.40;99.90
23544;DHT22;11950;51.230;4.012;2022-12-11T07:16:59;4.50;99.90
23544;DHT22;11950;51.230;4.012;2022-12-11T07:19:26;4.50;99.90
23544;DHT22;11950;51.230;4.012;2022-12-11T07:21:52;4.50;99.90
23544;DHT22;11950;51.230;4.012;2022-12-11T07:24:18;4.50;99.90
23544;DHT22;11950;51.230;4.012;2022-12-11T07:26:45;4.50;99.90
23544;DHT22;11950;51.230;4.012;2022-12-11T07:29:11;4.50;99.90
23544;DHT22;11950;51.230;4.012;2022-12-11T07:31:37;4.50;99.90
23544;DHT22;11950;51.230;4.012;2022-12-11T07:34:05;4.40;99.90
23544;DHT22;11950;51.230;4.012;2022-12-11T07:36:32;4.40;99.90
23544;DHT22;11950;51.230;4.012;2022-12-11T07:38:59;4.40;99.90
23544;DHT22;11950;51.230;4.012;2022-12-11T07:41:26;4.30;99.90
23544;DHT22;11950;51.230;4.012;2022-12-11T07:43:59;4.40;99.90
23544;DHT22;11950;51.230;4.012;2022-12-11T07:46:27;4.40;99.90
23544;DHT22;11950;51.230;4.012;2022-12-11T07:48:54;4.40;99.90
23544;DHT22;11950;51.230;4.012;2022-12-11T07:51:25;4.40;99.90
23544;DHT22;11950;51.230;4.012;2022-12-11T07:53:55;4.40;99.90
23544;DHT22;11950;51.230;4.012;2022-12-11T07:56:22;4.40;99.90
23544;DHT22;11950;51.230;4.012;2022-12-11T07:58:49;4.40;99.90
23544;DHT22;11950;51.230;4.012;2022-12-11T08:01:26;4.50;99.90
23544;DHT22;11950;51.230;4.012;2022-12-11T08:03:53;4.50;99.90
23544;DHT22;11950;51.230;4.012;2022-12-11T08:06:27;4.50;99.90
23544;DHT22;11950;51.230;4.012;2022-12-11T08:08:55;4.50;99.90
23544;DHT22;11950;51.230;4.012;2022-12-11T08:11:22;4.50;99.90
23544;DHT22;11950;51.230;4.012;2022-12-11T08:13:48;4.50;99.90
23544;DHT22;11950;51.230;4.012;2022-12-11T08:16:15;4.50;99.90
23544;DHT22;11950;51.230;4.012;2022-12-11T08:18:43;4.50;99.90
23544;DHT22;11950;51.230;4.012;2022-12-11T08:21:15;4.50;99.90
23544;DHT22;11950;51.230;4.012;2022-12-11T08:23:42;4.50;99.90
23544;DHT22;11950;51.230;4.012;2022-12-11T08:26:17;4.50;99.90
23544;DHT22;11950;51.230;4.012;2022-12-11T08:28:44;4.50;99.90
23544;DHT22;11950;51.230;4.012;2022-12-11T08:31:12;4.40;99.90
23544;DHT22;11950;51.230;4.012;2022-12-11T08:33:39;4.50;99.90
23544;DHT22;11950;51.230;4.012;2022-12-11T08:36:08;4.50;99.90
23544;DHT22;11950;51.230;4.012;2022-12-11T08:38:36;4.50;99.90
23544;DHT22;11950;51.230;4.012;2022-12-11T08:41:13;4.50;99.90
23544;DHT22;11950;51.230;4.012;2022-12-11T08:43:40;4.50;99.90
23544;DHT22;11950;51.230;4.012;2022-12-11T08:46:07;4.60;99.90
23544;DHT22;11950;51.230;4.012;2022-12-11T08:48:35;4.50;99.90
23544;DHT22;11950;51.230;4.012;2022-12-11T08:51:03;4.50;99.90
23544;DHT22;11950;51.230;4.012;2022-12-11T08:53:31;4.50;99.90
23544;DHT22;11950;51.230;4.012;2022-12-11T08:56:11;4.50;99.90
23544;DHT22;11950;51.230;4.012;2022-12-11T08:58:38;4.50;99.90
23544;DHT22;11950;51.230;4.012;2022-12-11T09:01:16;4.50;99.90
23544;DHT22;11950;51.230;4.012;2022-12-11T09:03:43;4.50;99.90
23544;DHT22;11950;51.230;4.012;2022-12-11T09:06:14;4.70;99.90
23544;DHT22;11950;51.230;4.012;2022-12-11T09:08:42;4.40;99.90
23544;DHT22;11950;51.230;4.012;2022-12-11T09:11:16;4.50;99.90
23544;DHT22;11950;51.230;4.012;2022-12-11T09:13:43;4.70;99.90
23544;DHT22;11950;51.230;4.012;2022-12-11T09:16:15;4.50;99.90
23544;DHT22;11950;51.230;4.012;2022-12-11T09:18:43;4.50;99.90
23544;DHT22;11950;51.230;4.012;2022-12-11T09:21:12;4.50;99.90
23544;DHT22;11950;51.230;4.012;2022-12-11T09:23:39;4.70;99.90
23544;DHT22;11950;51.230;4.012;2022-12-11T09:26:08;4.90;99.90
23544;DHT22;11950;51.230;4.012;2022-12-11T09:28:36;4.60;99.90
23544;DHT22;11950;51.230;4.012;2022-12-11T09:31:13;4.60;99.90
23544;DHT22;11950;51.230;4.012;2022-12-11T09:33:40;4.60;99.90
23544;DHT22;11950;51.230;4.012;2022-12-11T09:36:07;4.60;99.90
23544;DHT22;11950;51.230;4.012;2022-12-11T09:38:34;4.50;99.90
23544;DHT22;11950;51.230;4.012;2022-12-11T09:41:02;4.50;99.90
23544;DHT22;11950;51.230;4.012;2022-12-11T09:43:57;4.50;99.90
23544;DHT22;11950;51.230;4.012;2022-12-11T09:46:27;4.50;99.90
23544;DHT22;11950;51.230;4.012;2022-12-11T09:48:53;4.50;99.90
23544;DHT22;11950;51.230;4.012;2022-12-11T09:51:21;4.50;99.90
23544;DHT22;11950;51.230;4.012;2022-12-11T09:53:49;4.50;99.90
23544;DHT22;11950;51.230;4.012;2022-12-11T09:56:32;4.50;99.90
23544;DHT22;11950;51.230;4.012;2022-12-11T09:59:06;4.50;99.90
23544;DHT22;11950;51.230;4.012;2022-12-11T10:04:53;4.50;99.90
23544;DHT22;11950;51.230;4.012;2022-12-11T10:07:36;4.60;99.90
23544;DHT22;11950;51.230;4.012;2022-12-11T10:16:03;4.50;99.90
23544;DHT22;11950;51.230;4.012;2022-12-11T10:18:31;4.60;99.90
23544;DHT22;11950;51.230;4.012;2022-12-11T10:21:00;4.60;99.90
23544;DHT22;11950;51.230;4.012;2022-12-11T10:23:39;4.60;99.90
23544;DHT22;11950;51.230;4.012;2022-12-11T10:26:13;4.60;99.90
23544;DHT22;11950;51.230;4.012;2022-12-11T10:28:41;4.60;99.90
23544;DHT22;11950;51.230;4.012;2022-12-11T10:36:36;4.60;99.90
23544;DHT22;11950;51.230;4.012;2022-12-11T10:39:11;4.60;99.90
23544;DHT22;11950;51.230;4.012;2022-12-11T10:41:42;4.60;99.90
23544;DHT22;11950;51.230;4.012;2022-12-11T10:44:16;4.60;99.90
23544;DHT22;11950;51.230;4.012;2022-12-11T10:46:44;4.60;99.90
23544;DHT22;11950;51.230;4.012;2022-12-11T10:49:43;4.60;99.90
23544;DHT22;11950;51.230;4.012;2022-12-11T10:52:22;4.70;99.90
23544;DHT22;11950;51.230;4.012;2022-12-11T10:54:57;4.70;99.90
23544;DHT22;11950;51.230;4.012;2022-12-11T10:57:33;4.70;99.90
23544;DHT22;11950;51.230;4.012;2022-12-11T11:00:03;4.70;99.90
23544;DHT22;11950;51.230;4.012;2022-12-11T11:02:38;4.80;99.90
23544;DHT22;11950;51.230;4.012;2022-12-11T11:05:14;4.70;99.90
23544;DHT22;11950;51.230;4.012;2022-12-11T11:07:41;4.70;99.90
23544;DHT22;11950;51.230;4.012;2022-12-11T11:12:49;4.80;99.90
23544;DHT22;11950;51.230;4.012;2022-12-11T11:15:19;4.70;99.90
23544;DHT22;11950;51.230;4.012;2022-12-11T11:17:50;4.70;99.90
23544;DHT22;11950;51.230;4.012;2022-12-11T11:20:19;4.70;99.90
23544;DHT22;11950;51.230;4.012;2022-12-11T11:22:50;4.70;99.90
23544;DHT22;11950;51.230;4.012;2022-12-11T11:25:20;4.90;99.90
23544;DHT22;11950;51.230;4.012;2022-12-11T11:28:04;4.70;99.90
23544;DHT22;11950;51.230;4.012;2022-12-11T11:30:35;4.70;99.90
23544;DHT22;11950;51.230;4.012;2022-12-11T11:33:14;4.60;99.90
23544;DHT22;11950;51.230;4.012;2022-12-11T11:36:06;4.80;99.90
23544;DHT22;11950;51.230;4.012;2022-12-11T11:41:28;4.80;99.90
23544;DHT22;11950;51.230;4.012;2022-12-11T11:44:01;4.90;99.90
23544;DHT22;11950;51.230;4.012;2022-12-11T11:46:33;5.00;99.90
23544;DHT22;11950;51.230;4.012;2022-12-11T11:51:50;4.90;99.90
23544;DHT22;11950;51.230;4.012;2022-12-11T11:54:38;4.80;99.90
23544;DHT22;11950;51.230;4.012;2022-12-11T11:57:14;4.80;99.90
23544;DHT22;11950;51.230;4.012;2022-12-11T11:59:52;4.80;99.90
23544;DHT22;11950;51.230;4.012;2022-12-11T12:02:19;4.60;99.90
23544;DHT22;11950;51.230;4.012;2022-12-11T12:04:46;4.60;99.90
23544;DHT22;11950;51.230;4.012;2022-12-11T12:07:36;4.70;99.90
23544;DHT22;11950;51.230;4.012;2022-12-11T12:10:42;4.80;99.90
23544;DHT22;11950;51.230;4.012;2022-12-11T12:13:31;4.80;99.90
23544;DHT22;11950;51.230;4.012;2022-12-11T12:16:00;4.80;99.90
23544;DHT22;11950;51.230;4.012;2022-12-11T12:19:06;4.80;99.90
23544;DHT22;11950;51.230;4.012;2022-12-11T12:21:38;4.90;99.90
23544;DHT22;11950;51.230;4.012;2022-12-11T12:24:42;5.20;99.90
23544;DHT22;11950;51.230;4.012;2022-12-11T12:27:22;4.80;99.90
23544;DHT22;11950;51.230;4.012;2022-12-11T12:32:58;4.80;99.90
23544;DHT22;11950;51.230;4.012;2022-12-11T12:35:36;4.80;99.90
23544;DHT22;11950;51.230;4.012;2022-12-11T12:38:28;5.10;99.90
23544;DHT22;11950;51.230;4.012;2022-12-11T12:41:10;4.70;99.90
23544;DHT22;11950;51.230;4.012;2022-12-11T12:49:11;4.80;99.90
23544;DHT22;11950;51.230;4.012;2022-12-11T12:51:40;4.80;99.90
23544;DHT22;11950;51.230;4.012;2022-12-11T12:54:08;4.70;99.90
23544;DHT22;11950;51.230;4.012;2022-12-11T12:56:35;4.80;99.90
23544;DHT22;11950;51.230;4.012;2022-12-11T12:59:02;4.80;99.90
23544;DHT22;11950;51.230;4.012;2022-12-11T13:01:30;4.80;99.90
23544;DHT22;11950;51.230;4.012;2022-12-11T13:04:02;4.80;99.90
23544;DHT22;11950;51.230;4.012;2022-12-11T13:06:40;4.80;99.90
23544;DHT22;11950;51.230;4.012;2022-12-11T13:09:17;4.60;99.90
23544;DHT22;11950;51.230;4.012;2022-12-11T13:11:45;4.80;99.90
23544;DHT22;11950;51.230;4.012;2022-12-11T13:16:46;4.90;99.90
23544;DHT22;11950;51.230;4.012;2022-12-11T13:24:58;4.80;99.90
23544;DHT22;11950;51.230;4.012;2022-12-11T13:27:39;4.90;99.90
23544;DHT22;11950;51.230;4.012;2022-12-11T13:33:13;4.90;99.90
23544;DHT22;11950;51.230;4.012;2022-12-11T13:35:40;4.90;99.90
23544;DHT22;11950;51.230;4.012;2022-12-11T13:38:17;4.80;99.90
23544;DHT22;11950;51.230;4.012;2022-12-11T13:40:51;4.80;99.90
23544;DHT22;11950;51.230;4.012;2022-12-11T13:43:24;4.90;99.90
23544;DHT22;11950;51.230;4.012;2022-12-11T13:45:53;4.90;99.90
23544;DHT22;11950;51.230;4.012;2022-12-11T13:50:54;4.80;99.90
23544;DHT22;11950;51.230;4.012;2022-12-11T13:53:22;4.80;99.90
23544;DHT22;11950;51.230;4.012;2022-12-11T13:56:04;4.90;99.90
23544;DHT22;11950;51.230;4.012;2022-12-11T13:58:36;4.90;99.90
23544;DHT22;11950;51.230;4.012;2022-12-11T14:01:07;4.80;99.90
23544;DHT22;11950;51.230;4.012;2022-12-11T14:03:39;4.80;99.90
23544;DHT22;11950;51.230;4.012;2022-12-11T14:06:09;4.80;99.90
23544;DHT22;11950;51.230;4.012;2022-12-11T14:08:37;4.80;99.90
23544;DHT22;11950;51.230;4.012;2022-12-11T14:11:05;4.70;99.90
23544;DHT22;11950;51.230;4.012;2022-12-11T14:13:34;4.70;99.90
23544;DHT22;11950;51.230;4.012;2022-12-11T14:16:02;4.80;99.90
23544;DHT22;11950;51.230;4.012;2022-12-11T14:18:34;4.80;99.90
23544;DHT22;11950;51.230;4.012;2022-12-11T14:21:03;4.80;99.90
23544;DHT22;11950;51.230;4.012;2022-12-11T14:23:32;4.80;99.90
23544;DHT22;11950;51.230;4.012;2022-12-11T14:26:16;4.80;99.90
23544;DHT22;11950;51.230;4.012;2022-12-11T14:28:43;4.80;99.90
23544;DHT22;11950;51.230;4.012;2022-12-11T14:31:14;4.80;99.90
23544;DHT22;11950;51.230;4.012;2022-12-11T14:33:44;4.80;99.90
23544;DHT22;11950;51.230;4.012;2022-12-11T14:36:14;4.80;99.90
23544;DHT22;11950;51.230;4.012;2022-12-11T14:38:48;4.70;99.90
23544;DHT22;11950;51.230;4.012;2022-12-11T14:41:19;4.80;99.90
23544;DHT22;11950;51.230;4.012;2022-12-11T14:43:50;4.80;99.90
23544;DHT22;11950;51.230;4.012;2022-12-11T14:46:22;4.80;99.90
23544;DHT22;11950;51.230;4.012;2022-12-11T14:48:54;4.70;99.90
23544;DHT22;11950;51.230;4.012;2022-12-11T14:51:23;4.80;99.90
23544;DHT22;11950;51.230;4.012;2022-12-11T14:53:51;4.80;99.90
23544;DHT22;11950;51.230;4.012;2022-12-11T14:56:21;4.70;99.90
23544;DHT22;11950;51.230;4.012;2022-12-11T14:58:59;4.80;99.90
23544;DHT22;11950;51.230;4.012;2022-12-11T15:01:33;4.80;99.90
23544;DHT22;11950;51.230;4.012;2022-12-11T15:04:22;4.80;99.90
23544;DHT22;11950;51.230;4.012;2022-12-11T15:06:50;4.80;99.90
23544;DHT22;11950;51.230;4.012;2022-12-11T15:09:25;4.70;99.90
23544;DHT22;11950;51.230;4.012;2022-12-11T15:11:54;4.70;99.90
23544;DHT22;11950;51.230;4.012;2022-12-11T15:14:22;4.60;99.90
23544;DHT22;11950;51.230;4.012;2022-12-11T15:16:49;4.60;99.90
23544;DHT22;11950;51.230;4.012;2022-12-11T15:19:29;4.60;99.90
23544;DHT22;11950;51.230;4.012;2022-12-11T15:22:04;4.60;99.90
23544;DHT22;11950;51.230;4.012;2022-12-11T15:24:40;4.60;99.90
23544;DHT22;11950;51.230;4.012;2022-12-11T15:29:45;4.60;99.90
23544;DHT22;11950;51.230;4.012;2022-12-11T15:37:31;4.60;99.90
23544;DHT22;11950;51.230;4.012;2022-12-11T15:39:59;4.70;99.90
23544;DHT22;11950;51.230;4.012;2022-12-11T15:42:28;4.60;99.90
23544;DHT22;11950;51.230;4.012;2022-12-11T15:44:55;4.60;99.90
23544;DHT22;11950;51.230;4.012;2022-12-11T15:47:25;4.70;99.90
23544;DHT22;11950;51.230;4.012;2022-12-11T15:49:59;4.60;99.90
23544;DHT22;11950;51.230;4.012;2022-12-11T15:52:27;4.60;99.90
23544;DHT22;11950;51.230;4.012;2022-12-11T15:54:53;4.60;99.90
23544;DHT22;11950;51.230;4.012;2022-12-11T15:57:21;4.50;99.90
23544;DHT22;11950;51.230;4.012;2022-12-11T15:59:50;4.60;99.90
23544;DHT22;11950;51.230;4.012;2022-12-11T16:02:17;4.50;99.90
23544;DHT22;11950;51.230;4.012;2022-12-11T16:04:44;4.50;99.90
23544;DHT22;11950;51.230;4.012;2022-12-11T16:07:21;4.60;99.90
23544;DHT22;11950;51.230;4.012;2022-12-11T16:09:48;4.60;99.90
23544;DHT22;11950;51.230;4.012;2022-12-11T16:12:15;4.60;99.90
23544;DHT22;11950;51.230;4.012;2022-12-11T16:14:42;4.50;99.90
23544;DHT22;11950;51.230;4.012;2022-12-11T16:17:12;4.50;99.90
23544;DHT22;11950;51.230;4.012;2022-12-11T16:19:40;4.50;99.90
23544;DHT22;11950;51.230;4.012;2022-12-11T16:22:07;4.50;99.90
23544;DHT22;11950;51.230;4.012;2022-12-11T16:24:34;4.40;99.90
23544;DHT22;11950;51.230;4.012;2022-12-11T16:27:01;4.30;99.90
23544;DHT22;11950;51.230;4.012;2022-12-11T16:29:27;4.40;99.90
23544;DHT22;11950;51.230;4.012;2022-12-11T16:31:54;4.40;99.90
23544;DHT22;11950;51.230;4.012;2022-12-11T16:34:25;4.40;99.90
23544;DHT22;11950;51.230;4.012;2022-12-11T16:36:52;4.40;99.90
23544;DHT22;11950;51.230;4.012;2022-12-11T16:39:18;4.50;99.90
23544;DHT22;11950;51.230;4.012;2022-12-11T16:41:45;4.40;99.90
23544;DHT22;11950;51.230;4.012;2022-12-11T16:44:11;4.40;99.90
23544;DHT22;11950;51.230;4.012;2022-12-11T16:46:37;4.40;99.90
23544;DHT22;11950;51.230;4.012;2022-12-11T16:49:03;4.40;99.90
23544;DHT22;11950;51.230;4.012;2022-12-11T16:51:30;4.40;99.90
23544;DHT22;11950;51.230;4.012;2022-12-11T16:53:56;4.30;99.90
23544;DHT22;11950;51.230;4.012;2022-12-11T16:56:23;4.30;99.90
23544;DHT22;11950;51.230;4.012;2022-12-11T16:58:50;4.40;99.90
23544;DHT22;11950;51.230;4.012;2022-12-11T17:01:16;4.40;99.90
23544;DHT22;11950;51.230;4.012;2022-12-11T17:03:43;4.40;99.90
23544;DHT22;11950;51.230;4.012;2022-12-11T17:06:11;4.40;99.90
23544;DHT22;11950;51.230;4.012;2022-12-11T17:08:38;4.40;99.90
23544;DHT22;11950;51.230;4.012;2022-12-11T17:11:12;4.40;99.90